createdAt,value
2018-12-26T00:00:20.148Z,-4.50
2018-12-26T00:02:49.116Z,-4.50
2018-12-26T00:05:18.157Z,-4.60
2018-12-26T00:07:47.146Z,-4.60
2018-12-26T00:10:15.956Z,-4.60
2018-12-26T00:12:44.930Z,-4.60
2018-12-26T00:15:14.035Z,-4.70
2018-12-26T00:17:42.967Z,-4.60
2018-12-26T00:20:11.762Z,-4.60
2018-12-26T00:22:40.714Z,-4.70
2018-12-26T00:25:09.715Z,-4.70
2018-12-26T00:27:38.716Z,-4.60
2018-12-26T00:30:07.683Z,-4.70
2018-12-26T00:32:36.560Z,-4.80
2018-12-26T00:35:05.502Z,-4.80
2018-12-26T00:37:34.313Z,-4.80
2018-12-26T00:40:03.192Z,-4.80
2018-12-26T00:42:32.168Z,-4.80
2018-12-26T00:45:01.149Z,-4.80
2018-12-26T00:47:30.120Z,-4.80
2018-12-26T00:49:59.227Z,-4.90
2018-12-26T00:52:28.094Z,-4.90
2018-12-26T00:54:56.876Z,-5.00
2018-12-26T00:57:25.822Z,-5.00
2018-12-26T00:59:54.889Z,-5.00
2018-12-26T01:02:23.768Z,-5.00
2018-12-26T01:04:52.740Z,-5.00
2018-12-26T01:07:21.646Z,-5.00
2018-12-26T01:09:50.487Z,-5.00
2018-12-26T01:12:19.461Z,-5.00
2018-12-26T01:14:48.437Z,-5.00
2018-12-26T01:17:17.349Z,-5.10
2018-12-26T01:19:46.255Z,-5.10
2018-12-26T01:22:15.297Z,-5.10
2018-12-26T01:24:44.250Z,-5.10
2018-12-26T01:27:13.185Z,-5.10
2018-12-26T01:29:42.279Z,-5.20
2018-12-26T01:32:11.136Z,-5.10
2018-12-26T01:34:40.186Z,-5.10
2018-12-26T01:37:09.213Z,-5.10
2018-12-26T01:39:38.247Z,-5.20
2018-12-26T01:42:07.192Z,-5.20
2018-12-26T01:44:36.114Z,-5.10
2018-12-26T01:47:05.046Z,-5.10
2018-12-26T01:49:34.031Z,-5.20
2018-12-26T01:52:03.025Z,-5.30
2018-12-26T01:54:31.845Z,-5.20
2018-12-26T01:57:00.902Z,-5.30
2018-12-26T01:59:29.806Z,-5.40
2018-12-26T02:01:58.716Z,-5.30
2018-12-26T02:04:27.665Z,-5.30
2018-12-26T02:06:56.660Z,-5.30
2018-12-26T02:09:25.620Z,-5.30
2018-12-26T02:11:54.603Z,-5.30
2018-12-26T02:14:23.592Z,-5.30
2018-12-26T02:16:52.558Z,-5.30
2018-12-26T02:19:21.359Z,-5.30
2018-12-26T02:21:50.332Z,-5.40
2018-12-26T02:24:19.237Z,-5.50
2018-12-26T02:26:48.190Z,-5.50
2018-12-26T02:29:17.297Z,-5.40
2018-12-26T02:31:46.232Z,-5.40
2018-12-26T02:34:15.103Z,-5.50
2018-12-26T02:36:44.098Z,-5.50
2018-12-26T02:39:13.205Z,-5.60
2018-12-26T02:41:42.037Z,-5.60
2018-12-26T02:44:11.003Z,-5.50
2018-12-26T02:46:39.920Z,-5.50
2018-12-26T02:49:08.723Z,-5.50
2018-12-26T02:51:37.560Z,-5.50
2018-12-26T02:54:06.545Z,-5.60
2018-12-26T02:56:54.913Z,-5.60
2018-12-26T02:59:23.853Z,-5.60
2018-12-26T03:01:52.753Z,-5.60
2018-12-26T03:04:21.803Z,-5.70
2018-12-26T03:06:50.709Z,-5.70
2018-12-26T03:09:19.734Z,-5.80
2018-12-26T03:11:48.621Z,-5.70
2018-12-26T03:14:17.578Z,-5.80
2018-12-26T03:16:46.395Z,-5.80
2018-12-26T03:19:15.279Z,-5.80
2018-12-26T03:21:44.296Z,-5.80
2018-12-26T03:24:13.182Z,-5.70
2018-12-26T03:26:42.093Z,-5.80
2018-12-26T03:29:11.090Z,-5.90
2018-12-26T03:31:40.691Z,-5.80
2018-12-26T03:34:09.542Z,-5.80
2018-12-26T03:36:38.522Z,-5.80
2018-12-26T03:39:07.522Z,-5.80
2018-12-26T03:41:36.568Z,-5.90
2018-12-26T03:44:06.132Z,-6.00
2018-12-26T03:46:35.495Z,-5.90
2018-12-26T03:49:04.506Z,-5.90
2018-12-26T03:51:33.427Z,-5.80
2018-12-26T03:54:02.501Z,-5.80
2018-12-26T03:56:31.812Z,-5.80
2018-12-26T03:59:00.981Z,-5.80
2018-12-26T04:01:30.034Z,-5.80
2018-12-26T04:03:58.910Z,-5.90
2018-12-26T04:06:27.837Z,-6.00
2018-12-26T04:08:57.193Z,-6.00
2018-12-26T04:11:26.182Z,-6.10
2018-12-26T04:13:54.983Z,-6.00
2018-12-26T04:16:23.983Z,-6.00
2018-12-26T04:18:52.874Z,-6.10
2018-12-26T04:21:21.811Z,-6.10
2018-12-26T04:23:50.736Z,-6.10
2018-12-26T04:26:19.937Z,-6.10
2018-12-26T04:28:48.895Z,-6.10
2018-12-26T04:31:17.848Z,-6.00
2018-12-26T04:33:46.734Z,-6.00
2018-12-26T04:36:15.625Z,-5.90
2018-12-26T04:38:44.624Z,-5.90
2018-12-26T04:41:13.514Z,-6.00
2018-12-26T04:43:42.607Z,-6.00
2018-12-26T04:46:11.481Z,-6.10
2018-12-26T04:48:40.347Z,-6.10
2018-12-26T04:51:09.360Z,-6.10
2018-12-26T04:53:38.330Z,-6.00
2018-12-26T04:56:07.155Z,-6.00
2018-12-26T04:58:36.276Z,-6.10
2018-12-26T05:01:05.363Z,-6.10
2018-12-26T05:03:34.574Z,-6.10
2018-12-26T05:06:03.848Z,-6.10
2018-12-26T05:08:32.855Z,-6.10
2018-12-26T05:11:02.124Z,-6.10
2018-12-26T05:13:31.036Z,-6.10
2018-12-26T05:15:59.991Z,-6.10
2018-12-26T05:18:28.945Z,-6.10
2018-12-26T05:20:58.211Z,-6.10
2018-12-26T05:23:27.167Z,-6.20
2018-12-26T05:25:56.196Z,-6.10
2018-12-26T05:28:25.115Z,-6.20
2018-12-26T05:30:53.951Z,-6.20
2018-12-26T05:33:22.743Z,-6.30
2018-12-26T05:35:51.707Z,-6.20
2018-12-26T05:38:22.004Z,-6.10
2018-12-26T05:40:51.488Z,-6.10
2018-12-26T05:43:20.709Z,-6.20
2018-12-26T05:45:49.602Z,-6.30
2018-12-26T05:48:18.401Z,-6.30
2018-12-26T05:50:47.422Z,-6.20
2018-12-26T05:53:16.676Z,-6.20
2018-12-26T05:55:45.598Z,-6.20
2018-12-26T05:58:14.657Z,-6.20
2018-12-26T06:00:43.493Z,-6.30
2018-12-26T06:03:12.604Z,-6.30
2018-12-26T06:05:42.160Z,-6.30
2018-12-26T06:08:11.495Z,-6.40
2018-12-26T06:10:40.442Z,-6.40
2018-12-26T06:13:09.816Z,-6.30
2018-12-26T06:15:38.783Z,-6.30
2018-12-26T06:18:08.352Z,-6.40
2018-12-26T06:20:37.781Z,-6.40
2018-12-26T06:23:06.945Z,-6.40
2018-12-26T06:25:36.038Z,-6.30
2018-12-26T06:28:05.405Z,-6.30
2018-12-26T06:30:34.694Z,-6.40
2018-12-26T06:33:04.412Z,-6.50
2018-12-26T06:35:33.636Z,-6.40
2018-12-26T06:38:02.593Z,-6.40
2018-12-26T06:40:31.493Z,-6.40
2018-12-26T06:43:00.466Z,-6.30
2018-12-26T06:45:29.432Z,-6.30
2018-12-26T06:47:58.615Z,-6.30
2018-12-26T06:50:27.935Z,-6.30
2018-12-26T06:52:56.863Z,-6.40
2018-12-26T06:55:26.575Z,-6.40
2018-12-26T06:58:00.082Z,-6.30
2018-12-26T07:00:26.697Z,-6.40
2018-12-26T07:02:55.713Z,-6.30
2018-12-26T07:05:24.609Z,-6.30
2018-12-26T07:07:53.831Z,-6.30
2018-12-26T07:10:22.694Z,-6.30
2018-12-26T07:12:51.967Z,-6.40
2018-12-26T07:15:20.853Z,-6.40
2018-12-26T07:17:49.679Z,-6.40
2018-12-26T07:20:18.604Z,-6.40
2018-12-26T07:22:47.827Z,-6.40
2018-12-26T07:25:17.663Z,-6.30
2018-12-26T07:27:46.612Z,-6.30
2018-12-26T07:30:15.455Z,-6.20
2018-12-26T07:32:44.778Z,-6.20
2018-12-26T07:35:14.603Z,-6.20
2018-12-26T07:37:43.647Z,-6.30
2018-12-26T07:40:12.998Z,-6.30
2018-12-26T07:42:42.159Z,-6.30
2018-12-26T07:45:11.424Z,-6.20
2018-12-26T07:47:40.589Z,-6.20
2018-12-26T07:50:09.930Z,-6.20
2018-12-26T07:52:39.373Z,-6.20
2018-12-26T07:55:08.336Z,-6.20
2018-12-26T07:57:37.846Z,-6.20
2018-12-26T08:00:09.392Z,-6.10
2018-12-26T08:02:38.207Z,-6.20
2018-12-26T08:05:07.547Z,-6.20
2018-12-26T08:07:36.541Z,-6.20
2018-12-26T08:10:06.176Z,-6.10
2018-12-26T08:12:35.395Z,-6.10
2018-12-26T08:15:10.441Z,-6.10
2018-12-26T08:17:35.056Z,-6.10
2018-12-26T08:20:04.747Z,-6.10
2018-12-26T08:22:34.029Z,-6.10
2018-12-26T08:25:03.248Z,-6.00
2018-12-26T08:27:32.352Z,-6.00
2018-12-26T08:30:02.132Z,-6.00
2018-12-26T08:32:31.005Z,-6.00
2018-12-26T08:34:59.842Z,-5.90
2018-12-26T08:37:28.853Z,-5.90
2018-12-26T08:39:57.745Z,-5.90
2018-12-26T08:42:26.672Z,-5.90
2018-12-26T08:44:55.647Z,-5.90
2018-12-26T08:47:26.016Z,-5.70
2018-12-26T08:49:54.944Z,-5.70
2018-12-26T08:52:24.488Z,-5.70
2018-12-26T08:54:53.268Z,-5.70
2018-12-26T08:57:22.237Z,-5.70
2018-12-26T08:59:51.498Z,-5.60
2018-12-26T09:02:20.307Z,-5.60
2018-12-26T09:04:49.248Z,-5.60
2018-12-26T09:07:18.934Z,-5.50
2018-12-26T09:09:47.806Z,-5.40
2018-12-26T09:12:17.841Z,-5.30
2018-12-26T09:14:46.777Z,-5.20
2018-12-26T09:17:16.117Z,-5.20
2018-12-26T09:19:45.270Z,-5.00
2018-12-26T09:22:14.233Z,-5.00
2018-12-26T09:24:43.125Z,-5.00
2018-12-26T09:27:13.287Z,-4.90
2018-12-26T09:29:43.647Z,-4.80
2018-12-26T09:32:14.255Z,-4.70
2018-12-26T09:34:43.472Z,-4.60
2018-12-26T09:37:13.340Z,-4.50
2018-12-26T09:39:42.981Z,-4.50
2018-12-26T09:42:12.177Z,-4.40
2018-12-26T09:44:41.687Z,-4.30
2018-12-26T09:47:11.485Z,-4.30
2018-12-26T09:49:41.372Z,-4.20
2018-12-26T09:52:10.300Z,-4.10
2018-12-26T09:54:39.304Z,-4.10
2018-12-26T09:57:08.218Z,-4.00
2018-12-26T09:59:43.559Z,-3.90
2018-12-26T10:02:12.433Z,-3.90
2018-12-26T10:04:41.422Z,-3.80
2018-12-26T10:07:10.441Z,-3.80
2018-12-26T10:09:39.863Z,-3.70
2018-12-26T10:12:09.422Z,-3.60
2018-12-26T10:14:39.092Z,-3.50
2018-12-26T10:17:08.125Z,-3.40
2018-12-26T10:19:37.415Z,-3.40
2018-12-26T10:22:06.340Z,-3.30
2018-12-26T10:24:35.594Z,-3.20
2018-12-26T10:27:04.785Z,-3.10
2018-12-26T10:29:33.707Z,-3.00
2018-12-26T10:32:02.656Z,-2.90
2018-12-26T10:34:31.583Z,-2.80
2018-12-26T10:37:00.489Z,-2.80
2018-12-26T10:39:29.444Z,-2.70
2018-12-26T10:41:58.420Z,-2.60
2018-12-26T10:44:27.641Z,-2.50
2018-12-26T10:46:56.533Z,-2.40
2018-12-26T10:49:25.460Z,-2.40
2018-12-26T10:51:54.450Z,-2.30
2018-12-26T10:54:23.403Z,-2.30
2018-12-26T10:56:52.214Z,-2.20
2018-12-26T10:59:21.269Z,-2.20
2018-12-26T11:01:51.547Z,-2.10
2018-12-26T11:04:20.516Z,-2.00
2018-12-26T11:06:49.604Z,-1.90
2018-12-26T11:09:30.698Z,-1.70
2018-12-26T11:11:59.644Z,-1.70
2018-12-26T11:14:28.606Z,-1.60
2018-12-26T11:16:57.517Z,-1.50
2018-12-26T11:19:26.338Z,-1.40
2018-12-26T11:21:55.640Z,-1.40
2018-12-26T11:24:24.460Z,-1.30
2018-12-26T11:26:53.791Z,-1.30
2018-12-26T11:29:22.773Z,-1.20
2018-12-26T11:31:52.062Z,-1.10
2018-12-26T11:34:20.952Z,-1.00
2018-12-26T11:36:50.099Z,-0.90
2018-12-26T11:39:19.189Z,-0.80
2018-12-26T11:41:48.135Z,-0.80
2018-12-26T11:44:17.203Z,-0.80
2018-12-26T11:46:46.184Z,-0.70
2018-12-26T11:49:15.108Z,-0.70
2018-12-26T11:51:44.077Z,-0.60
2018-12-26T11:54:13.412Z,-0.50
2018-12-26T11:56:42.802Z,-0.40
2018-12-26T11:59:12.168Z,-0.30
2018-12-26T12:01:41.226Z,-0.20
2018-12-26T12:04:10.508Z,-0.10
2018-12-26T12:06:39.530Z,-0.10
2018-12-26T12:09:08.449Z,0.00
2018-12-26T12:11:37.483Z,0.00
2018-12-26T12:14:06.770Z,0.10
2018-12-26T12:16:35.696Z,0.20
2018-12-26T12:19:04.876Z,0.40
2018-12-26T12:21:33.797Z,0.60
2018-12-26T12:24:02.924Z,0.70
2018-12-26T12:26:31.792Z,0.80
2018-12-26T12:29:00.863Z,1.00
2018-12-26T12:31:30.334Z,1.00
2018-12-26T12:33:59.544Z,1.10
2018-12-26T12:36:28.702Z,1.20
2018-12-26T12:38:57.936Z,1.20
2018-12-26T12:41:26.956Z,1.10
2018-12-26T12:43:55.947Z,1.10
2018-12-26T12:46:25.030Z,1.00
2018-12-26T12:48:54.607Z,1.00
2018-12-26T12:51:23.629Z,0.80
2018-12-26T12:53:52.716Z,0.60
2018-12-26T12:56:21.548Z,0.60
2018-12-26T12:58:50.664Z,0.60
2018-12-26T13:01:19.660Z,0.60
2018-12-26T13:03:48.785Z,0.60
2018-12-26T13:06:17.809Z,0.60
2018-12-26T13:08:46.853Z,0.60
2018-12-26T13:11:15.887Z,0.60
2018-12-26T13:13:44.717Z,0.60
2018-12-26T13:16:13.823Z,0.60
2018-12-26T13:18:43.312Z,0.60
2018-12-26T13:21:12.372Z,0.60
2018-12-26T13:23:41.393Z,0.60
2018-12-26T13:26:10.421Z,0.60
2018-12-26T13:28:39.874Z,0.60
2018-12-26T13:31:08.930Z,0.60
2018-12-26T13:33:38.073Z,0.60
2018-12-26T13:36:06.972Z,0.50
2018-12-26T13:38:36.284Z,0.50
2018-12-26T13:41:05.282Z,0.50
2018-12-26T13:43:34.126Z,0.50
2018-12-26T13:46:03.167Z,0.50
2018-12-26T13:48:32.175Z,0.50
2018-12-26T13:51:01.109Z,0.40
2018-12-26T13:53:30.000Z,0.50
2018-12-26T13:55:59.015Z,0.50
2018-12-26T13:58:27.986Z,0.50
2018-12-26T14:00:57.085Z,0.50
2018-12-26T14:03:26.359Z,0.40
2018-12-26T14:05:55.388Z,0.40
2018-12-26T14:08:24.724Z,0.40
2018-12-26T14:10:53.647Z,0.40
2018-12-26T14:13:22.712Z,0.40
2018-12-26T14:15:51.745Z,0.30
2018-12-26T14:18:20.648Z,0.30
2018-12-26T14:20:49.662Z,0.30
2018-12-26T14:23:18.973Z,0.30
2018-12-26T14:25:48.210Z,0.20
2018-12-26T14:28:17.940Z,0.20
2018-12-26T14:30:46.917Z,0.20
2018-12-26T14:33:15.889Z,0.20
2018-12-26T14:35:51.907Z,0.20
2018-12-26T14:38:20.814Z,0.20
2018-12-26T14:40:49.778Z,0.20
2018-12-26T14:43:18.661Z,0.10
2018-12-26T14:45:47.660Z,0.10
2018-12-26T14:48:16.987Z,0.00
2018-12-26T14:50:46.194Z,-0.10
2018-12-26T14:53:15.561Z,-0.10
2018-12-26T14:55:44.555Z,-0.20
2018-12-26T14:58:13.593Z,-0.20
2018-12-26T15:00:43.282Z,-0.30
2018-12-26T15:03:12.363Z,-0.30
2018-12-26T15:05:41.278Z,-0.30
2018-12-26T15:08:10.176Z,-0.40
2018-12-26T15:10:39.156Z,-0.40
2018-12-26T15:13:08.134Z,-0.40
2018-12-26T15:15:37.058Z,-0.40
2018-12-26T15:18:06.038Z,-0.50
2018-12-26T15:20:34.935Z,-0.50
2018-12-26T15:23:03.929Z,-0.50
2018-12-26T15:25:33.162Z,-0.60
2018-12-26T15:28:02.236Z,-0.50
2018-12-26T15:30:31.217Z,-0.60
2018-12-26T15:33:00.200Z,-0.60
2018-12-26T15:35:29.062Z,-0.70
2018-12-26T15:37:57.881Z,-0.80
2018-12-26T15:40:26.945Z,-0.90
2018-12-26T15:42:55.927Z,-0.90
2018-12-26T15:45:25.747Z,-0.90
2018-12-26T15:47:54.622Z,-1.00
2018-12-26T15:50:24.137Z,-1.00
2018-12-26T15:52:53.042Z,-1.10
2018-12-26T15:55:21.847Z,-1.10
2018-12-26T15:57:50.781Z,-1.20
2018-12-26T16:00:19.844Z,-1.20
2018-12-26T16:02:48.927Z,-1.20
2018-12-26T16:05:18.062Z,-1.20
2018-12-26T16:07:47.038Z,-1.30
2018-12-26T16:10:16.183Z,-1.30
2018-12-26T16:12:45.132Z,-1.30
2018-12-26T16:15:14.046Z,-1.40
2018-12-26T16:17:43.122Z,-1.40
2018-12-26T16:20:12.036Z,-1.40
2018-12-26T16:22:41.031Z,-1.40
2018-12-26T16:25:11.009Z,-1.50
2018-12-26T16:27:39.945Z,-1.40
2018-12-26T16:30:09.499Z,-1.50
2018-12-26T16:32:38.390Z,-1.60
2018-12-26T16:35:08.624Z,-1.60
2018-12-26T16:37:37.540Z,-1.60
2018-12-26T16:40:08.541Z,-1.60
2018-12-26T16:42:38.354Z,-1.60
2018-12-26T16:45:07.320Z,-1.60
2018-12-26T16:47:36.277Z,-1.70
2018-12-26T16:50:06.108Z,-1.80
2018-12-26T16:52:35.043Z,-1.80
2018-12-26T16:55:03.920Z,-1.80
2018-12-26T16:57:32.864Z,-1.70
2018-12-26T17:00:01.778Z,-1.80
2018-12-26T17:02:30.726Z,-1.80
2018-12-26T17:04:59.725Z,-1.80
2018-12-26T17:07:28.624Z,-1.90
2018-12-26T17:09:57.581Z,-1.80
2018-12-26T17:12:26.859Z,-1.90
2018-12-26T17:14:55.855Z,-1.90
2018-12-26T17:17:24.802Z,-1.90
2018-12-26T17:19:53.697Z,-2.00
2018-12-26T17:22:22.705Z,-2.00
2018-12-26T17:24:51.815Z,-2.10
2018-12-26T17:27:20.694Z,-2.10
2018-12-26T17:29:49.678Z,-2.10
2018-12-26T17:32:18.665Z,-2.00
2018-12-26T17:34:47.521Z,-2.00
2018-12-26T17:37:16.969Z,-1.90
2018-12-26T17:39:45.962Z,-2.00
2018-12-26T17:42:15.235Z,-2.00
2018-12-26T17:44:44.209Z,-2.10
2018-12-26T17:47:13.177Z,-2.10
2018-12-26T17:49:42.080Z,-2.10
2018-12-26T17:52:11.031Z,-2.10
2018-12-26T17:55:46.144Z,-2.20
2018-12-26T17:58:14.958Z,-2.20
2018-12-26T18:01:20.184Z,-2.20
2018-12-26T18:03:49.097Z,-2.20
2018-12-26T18:06:18.522Z,-2.30
2018-12-26T18:08:47.396Z,-2.30
2018-12-26T18:11:16.355Z,-2.30
2018-12-26T18:13:45.174Z,-2.30
2018-12-26T18:16:14.109Z,-2.40
2018-12-26T18:18:43.195Z,-2.40
2018-12-26T18:21:12.190Z,-2.40
2018-12-26T18:23:41.196Z,-2.30
2018-12-26T18:26:10.090Z,-2.30
2018-12-26T18:28:38.966Z,-2.30
2018-12-26T18:31:08.041Z,-2.30
2018-12-26T18:33:36.993Z,-2.40
2018-12-26T18:36:05.934Z,-2.40
2018-12-26T18:38:34.769Z,-2.40
2018-12-26T18:41:03.643Z,-2.50
2018-12-26T18:43:32.928Z,-2.40
2018-12-26T18:46:01.883Z,-2.50
2018-12-26T18:48:30.838Z,-2.40
2018-12-26T18:51:00.447Z,-2.40
2018-12-26T18:53:29.250Z,-2.40
2018-12-26T18:55:58.267Z,-2.50
2018-12-26T18:58:27.207Z,-2.50
2018-12-26T19:00:56.057Z,-2.60
2018-12-26T19:03:24.937Z,-2.60
2018-12-26T19:05:53.787Z,-2.60
2018-12-26T19:08:22.581Z,-2.60
2018-12-26T19:10:51.583Z,-2.60
2018-12-26T19:13:21.393Z,-2.50
2018-12-26T19:15:50.335Z,-2.50
2018-12-26T19:18:19.226Z,-2.60
2018-12-26T19:20:48.169Z,-2.60
2018-12-26T19:23:17.471Z,-2.70
2018-12-26T19:25:46.353Z,-2.70
2018-12-26T19:28:15.189Z,-2.70
2018-12-26T19:30:44.208Z,-2.60
2018-12-26T19:33:13.509Z,-2.60
2018-12-26T19:35:42.559Z,-2.60
2018-12-26T19:38:11.460Z,-2.70
2018-12-26T19:40:40.755Z,-2.80
2018-12-26T19:43:09.667Z,-2.80
2018-12-26T19:45:40.169Z,-2.80
2018-12-26T19:48:09.277Z,-2.80
2018-12-26T19:50:38.225Z,-2.80
2018-12-26T19:53:07.150Z,-2.80
2018-12-26T19:55:36.120Z,-2.90
2018-12-26T19:58:05.123Z,-2.80
2018-12-26T20:00:34.017Z,-2.90
2018-12-26T20:03:02.910Z,-2.90
2018-12-26T20:05:32.311Z,-2.90
2018-12-26T20:08:01.608Z,-3.00
2018-12-26T20:10:30.858Z,-3.00
2018-12-26T20:12:59.823Z,-3.00
2018-12-26T20:15:28.688Z,-3.00
2018-12-26T20:17:57.692Z,-3.00
2018-12-26T20:20:26.563Z,-2.90
2018-12-26T20:22:55.476Z,-2.80
2018-12-26T20:25:24.574Z,-2.90
2018-12-26T20:27:53.486Z,-3.00
2018-12-26T20:30:22.399Z,-2.90
2018-12-26T20:32:51.361Z,-2.90
2018-12-26T20:35:20.156Z,-2.90
2018-12-26T20:37:49.083Z,-2.90
2018-12-26T20:40:18.938Z,-2.80
2018-12-26T20:42:48.184Z,-2.90
2018-12-26T20:45:17.187Z,-2.90
2018-12-26T20:47:46.211Z,-2.90
2018-12-26T20:50:15.117Z,-2.90
2018-12-26T20:52:44.196Z,-2.80
2018-12-26T20:55:14.031Z,-2.80
2018-12-26T20:57:42.998Z,-2.80
2018-12-26T21:00:12.343Z,-2.80
2018-12-26T21:02:41.327Z,-2.80
2018-12-26T21:05:10.680Z,-2.80
2018-12-26T21:07:40.025Z,-2.80
2018-12-26T21:10:09.378Z,-2.80
2018-12-26T21:12:38.314Z,-2.70
2018-12-26T21:15:08.212Z,-2.70
2018-12-26T21:17:37.478Z,-2.70
2018-12-26T21:20:08.813Z,-2.70
2018-12-26T21:22:37.771Z,-2.70
2018-12-26T21:25:08.146Z,-2.70
2018-12-26T21:27:37.353Z,-2.70
2018-12-26T21:30:09.233Z,-2.70
2018-12-26T21:32:38.933Z,-2.60
2018-12-26T21:35:08.192Z,-2.60
2018-12-26T21:37:37.000Z,-2.50
2018-12-26T21:40:06.549Z,-2.50
2018-12-26T21:42:35.390Z,-2.50
2018-12-26T21:45:04.546Z,-2.50
2018-12-26T21:47:33.770Z,-2.50
2018-12-26T21:50:02.975Z,-2.50
2018-12-26T21:52:32.544Z,-2.50
2018-12-26T21:55:01.529Z,-2.50
2018-12-26T21:57:30.525Z,-2.40
2018-12-26T21:59:59.365Z,-2.40
2018-12-26T22:02:28.281Z,-2.40
2018-12-26T22:04:57.224Z,-2.40
2018-12-26T22:07:26.197Z,-2.40
2018-12-26T22:09:55.555Z,-2.40
2018-12-26T22:12:24.902Z,-2.40
2018-12-26T22:14:54.025Z,-2.40
2018-12-26T22:17:23.018Z,-2.40
2018-12-26T22:19:52.352Z,-2.40
2018-12-26T22:22:21.578Z,-2.40
2018-12-26T22:24:50.436Z,-2.40
2018-12-26T22:27:19.297Z,-2.40
2018-12-26T22:29:50.513Z,-2.40
2018-12-26T22:32:19.634Z,-2.40
2018-12-26T22:34:48.649Z,-2.40
2018-12-26T22:37:17.497Z,-2.40
2018-12-26T22:39:47.192Z,-2.40
2018-12-26T22:42:16.180Z,-2.40
2018-12-26T22:44:45.578Z,-2.40
2018-12-26T22:47:14.460Z,-2.40
2018-12-26T22:49:43.340Z,-2.40
2018-12-26T22:52:12.231Z,-2.40
2018-12-26T22:54:41.149Z,-2.40
2018-12-26T22:57:12.809Z,-2.50
2018-12-26T22:59:42.280Z,-2.50
2018-12-26T23:02:12.546Z,-2.50
2018-12-26T23:04:41.668Z,-2.50
2018-12-26T23:07:10.494Z,-2.50
2018-12-26T23:09:39.851Z,-2.50
2018-12-26T23:12:08.822Z,-2.50
2018-12-26T23:14:38.081Z,-2.50
2018-12-26T23:17:07.760Z,-2.50
2018-12-26T23:19:36.566Z,-2.50
2018-12-26T23:22:05.972Z,-2.40
2018-12-26T23:24:35.047Z,-2.50
2018-12-26T23:27:04.036Z,-2.50
2018-12-26T23:29:32.960Z,-2.50
2018-12-26T23:32:01.945Z,-2.50
2018-12-26T23:34:31.453Z,-2.50
2018-12-26T23:37:00.295Z,-2.50
2018-12-26T23:39:29.578Z,-2.50
2018-12-26T23:41:58.430Z,-2.60
2018-12-26T23:44:27.694Z,-2.50
2018-12-26T23:46:56.695Z,-2.50
2018-12-26T23:49:25.903Z,-2.60
2018-12-26T23:51:55.110Z,-2.60
2018-12-26T23:54:24.187Z,-2.60
2018-12-26T23:56:53.137Z,-2.60
2018-12-26T23:59:22.716Z,-2.60
